AirNav   ATP
 
 475 users online  

KNBJ Barin Naval Outlying Field
Foley, Alabama, USA

GOING TO FOLEY?


FAA INFORMATION EFFECTIVE 06 DECEMBER 2018

Location

FAA Identifier: NBJ
Lat/Long: 30-23-20.7140N / 087-38-06.9450W
30-23.345233N / 087-38.115750W
30.3890872 / -87.6352625
(estimated)
Elevation: 54 ft. / 16 m (estimated)
Variation: 01E (1985)
Time zone: UTC -6 (UTC -5 during Daylight Saving Time)
Zip code: 36535

Airport Operations

Airport use: Private use. Permission required prior to landing
Activation date: 02/1980
Control tower: no
ARTCC: JACKSONVILLE CENTER
FSS: ANNISTON FLIGHT SERVICE STATION
Attendance: MON-FRI 1330-2330Z+, ALL SAT-SUN CLSD, ALL HOLS CLSD
Segmented circle: no

Airport Communications

CTAF: 269.425
WX AWOS-3PT at JKA (6 nm S): 134.525 (251-968-7581)
WX AWOS-3PT at CQF (13 nm W): 118.425 (251-928-3242)
  • ARPT USED FOR TOUCH AND GO'S ONLY.

Nearby radio navigation aids

VOR radial/distance  VOR name  Freq  Var
NUNr251/(16.3)SAUFLEY VOR108.8001E
BFMr118/25.5BROOKLEY VORTAC112.8004E

 
NDB name  Hdg/Dist  Freq  Var  ID
PICKENS265/23.832602WPKZ .--. -.- --..

Airport Services

Runway Information

Runway 9/27

Dimensions: 4012 x 150 ft. / 1223 x 46 m
Surface: asphalt
Weight bearing capacity: 
PCN 18 /F/B/W/T
RUNWAY 9  RUNWAY 27
Latitude: 30-23.320000N30-23.316667N
Longitude: 087-38.280000W087-37.516667W
Elevation: 54.0 ft.49.0 ft.
Traffic pattern: leftleft
Touchdown point: yes, no lightsno, no lights

Runway 15/33

Dimensions: 4000 x 150 ft. / 1219 x 46 m
Surface: asphalt
Weight bearing capacity: 
PCN 18 /F/A/W/T
RUNWAY 15  RUNWAY 33
Traffic pattern: leftleft

Airport Ownership and Management from official FAA records

Ownership: U.S. Navy
Owner: US NAVY
COMTRAWING
NAS WHITING FIELD, FL 32570
Manager: COMMANDING OFFICER
OPERATIONS DEPARTMENT, 7077 USS LEXINGTON COURT
MILTON, FL 32570-6155
Phone 850-623-7755
OR 850-623-7372

Additional Remarks

MISC: CTL AGCY WHITING FLD DSN 868-7654, C850-623-7654.
ATTENDED BY CRASH CREW PERSONNEL 1300-0400Z++ MON, 1300Z++ TUE-FRI OR AS REQUIRED FOR TRAINING OF MIL T-34 ACFT.
USED FOR PRACTICE INSTRUMENT APPROACHES BY MIL T-34 TYPE ACFT.
RSTD: TRAIN WING 5 AND 6 ACFT ONLY. PPR FOR ALL OTHER ACFT. CLSD FLD OPR PROH EXC LO APCH. CLSD FLD LO APCH SHALL TERMINATE ABV 500 FT AGL DUE TO APV MODEL ACFT OPR BLW 500 FT AGL.

Instrument Procedures

There are no published instrument procedures at KNBJ.

Some nearby airports with instrument procedures:

5R4 - Foley Municipal Airport (4 nm NW)
KJKA - Jack Edwards National Airport (6 nm S)
KCQF - H L Sonny Callahan Airport (13 nm W)
KNPA - Pensacola Naval Air Station/Forrest Sherman Field (17 nm E)
KPNS - Pensacola International Airport (24 nm E)
 
Loc | Ops | Rwys | IFR | FBO | Links
Com | Nav | Svcs | Stats | Notes

Continental Motors
AirBoss

 
Area around KNBJ (Barin Naval Outlying Field)
 
Road maps at: MapQuest Bing Google
 
Aerial photo
No photo
 
Sectional chart

 
Airport distance calculator
Flying to Barin Naval Outlying Field? Find the distance to fly.

From to KNBJ

Sunrise and sunset
Times for 11-Dec-2018
 Local
(UTC-6)
 Zulu
(UTC)
Morning civil twilight06:1212:12
Sunrise06:3812:38
Sunset16:4922:49
Evening civil twilight17:1623:16

Current date and time
Zulu (UTC)  11-Dec-2018 06:12:28
Local (UTC-6)  11-Dec-2018 00:12:28
 
METAR
KJKA 
6nm S 
110555Z AUTO 31003KT 10SM OVC038 06/04 A3033 RMK AO2 T00620036 10063 20047
KCQF 
13nm W 
110555Z AUTO 34005KT 10SM OVC039 07/03 A3032 RMK AO2
KNPA 
17nm E 
110521Z AUTO 36003KT 10SM BKN028 OVC041 06/04 A3031 RMK AO2 T00610039 $
TAF
KNPA 
17nm E 
1100/1123 33007KT 9999 OVC030 511509 512409 QNH3022INS TEMPO 1100/1105 OVC020 FM110500 34009KT 9999 BKN030 512009 QNH3027INS FM111000 36007KT 9999 SCT030 512009 QNH3031INS FM111500 36007KT 9999 SKC 512009 QNH3039INS AUTOMATED SENSOR METWATCH 1103 TIL 1112 T03/1113Z T14/1120Z COR 0005Z FN20053
NOTAMs
Click for the latest NOTAMs
NOTAMs are issued by the DoD/FAA and will open in a separate window not controlled by AirNav.

 

 
 

Would you like to see your business listed on this page?

 If your business provides an interesting product or service to pilots, flight crews, aircraft, or users of the Barin Naval Outlying Field, you should consider listing it here.  To start the listing process, click on the button below
 
Add a business
 

Other Pages about Barin Naval Outlying Field

www.pafw.com/nolf2.htm
 
Update a link
 
Copyright © AirNav, LLC. All rights reserved. Privacy Policy  Contact